ADDS METAR Data INFO
IDs: Format: Raw Decoded Include TAF

Data at: 1456 UTC 11 Dec 2017

KM21 111455Z AUTO 00000KT 10SM CLR 01/M01 A3010 RMK AO2 T00061014
KM21 111435Z AUTO 00000KT 10SM CLR 00/M02 A3008 RMK AO2 T10011020
KM21 111415Z AUTO 00000KT 10SM CLR M01/M03 A3009 RMK AO2 T10091026
KM21 111355Z AUTO 00000KT 10SM CLR M03/M04 A3009 RMK AO2 T10301037
KM21 111335Z AUTO 00000KT 10SM CLR M04/M04 A3010 RMK AO2 T10421045
KM21 111315Z AUTO 00000KT 10SM CLR M05/M05 A3010 RMK AO2 T10501051
KM21 111255Z AUTO 00000KT 10SM CLR M05/M05 A3011 RMK AO2 T10511051
KM21 111235Z AUTO 00000KT 10SM CLR M05/M05 A3012 RMK AO2 T10541055
KM21 111215Z AUTO 00000KT 10SM CLR M05/M06 A3013 RMK AO2 T10551057
KM21 111155Z AUTO 00000KT 10SM CLR M05/M05 A3013 RMK AO2 T10491053 11022 21053
KM21 111135Z AUTO 00000KT 10SM CLR M05/M05 A3013 RMK AO2 T10461046
KM21 111115Z AUTO 00000KT 10SM CLR M05/M05 A3012 RMK AO2 T10501051
KM21 111055Z AUTO 00000KT 10SM CLR M05/M05 A3013 RMK AO2 T10511054
KM21 111035Z AUTO 00000KT 10SM CLR M05/M05 A3013 RMK AO2 T10501053
KM21 111015Z AUTO 00000KT 10SM CLR M04/M05 A3013 RMK AO2 T10421047
KM21 110955Z AUTO 00000KT 10SM CLR M04/M04 A3013 RMK AO2 T10441044
KM21 110935Z AUTO 00000KT 10SM CLR M05/M05 A3013 RMK AO2 T10511051
KM21 110915Z AUTO 00000KT 10SM CLR M05/M05 A3013 RMK AO2 T10501055
KM21 110855Z AUTO 00000KT 10SM CLR M04/M05 A3015 RMK AO2 T10431049
KM21 110835Z AUTO 00000KT 10SM CLR M04/M04 A3015 RMK AO2 T10371044
KM21 110815Z AUTO 00000KT 10SM CLR M04/M04 A3015 RMK AO2 T10411045
KM21 110755Z AUTO 00000KT 10SM CLR M05/M05 A3016 RMK AO2 T10481055
KM21 110735Z AUTO 00000KT 10SM CLR M03/M04 A3016 RMK AO2 T10281041
KM21 110715Z AUTO 00000KT 10SM CLR M04/M04 A3015 RMK AO2 T10381044
KM21 110655Z AUTO 00000KT 10SM CLR M04/M05 A3015 RMK AO2 T10391054
KM21 110635Z AUTO 00000KT 10SM CLR M02/M04 A3016 RMK AO2 T10241045
KM21 110615Z AUTO 00000KT 10SM CLR M03/M05 A3016 RMK AO2 T10271046
KM21 110555Z AUTO 00000KT 10SM CLR M03/M05 A3015 RMK AO2 T10311050 10050 21031 400771081
KM21 110535Z AUTO 00000KT 10SM CLR M01/M05 A3015 RMK AO2 T10121049
KM21 110515Z AUTO 00000KT 10SM CLR M01/M04 A3015 RMK AO2 T10101042
KM21 110455Z AUTO 00000KT 10SM CLR M01/M04 A3015 RMK AO2 T10081042
KM21 110435Z AUTO 00000KT 10SM CLR M01/M04 A3014 RMK AO2 T10061044
KM21 110415Z AUTO 00000KT 10SM CLR M02/M04 A3014 RMK AO2 T10171043
KM21 110355Z AUTO 00000KT 10SM CLR M01/M04 A3014 RMK AO2 T10111045
KM21 110335Z AUTO 00000KT 10SM CLR M01/M04 A3014 RMK AO2 T10071045
KM21 110315Z AUTO 00000KT 10SM CLR 00/M04 A3013 RMK AO2 T00021043
KM21 110255Z AUTO 00000KT 10SM CLR 00/M04 A3013 RMK AO2 T10031045
KM21 110235Z AUTO 00000KT 10SM CLR 01/M04 A3012 RMK AO2 T00081045
KM21 110215Z AUTO 00000KT 10SM CLR 02/M05 A3012 RMK AO2 T00241046
KM21 110155Z AUTO 00000KT 10SM CLR 02/M05 A3011 RMK AO2 T00181046
KM21 110135Z AUTO 00000KT 10SM CLR 04/M05 A3011 RMK AO2 T00351047
KM21 110115Z AUTO 22003KT 10SM CLR 03/M05 A3011 RMK AO2 T00341050
KM21 110055Z AUTO 00000KT 10SM CLR 04/M05 A3011 RMK AO2 T00361052
KM21 110035Z AUTO 00000KT 10SM CLR 03/M05 A3011 RMK AO2 T00281052
KM21 110015Z AUTO 00000KT 10SM CLR 04/M05 A3010 RMK AO2 T00361053
KM21 102355Z AUTO 22003KT 10SM CLR 05/M05 A3010 RMK AO2 T00471053 10077 20036
KM21 102335Z AUTO 00000KT 10SM CLR 05/M05 A3009 RMK AO2 T00461053
KM21 102315Z AUTO 22004KT 10SM CLR 04/M05 A3008 RMK AO2 T00421052
KM21 102255Z AUTO 22003KT 10SM CLR 05/M05 A3008 RMK AO2 T00461055
KM21 102235Z AUTO 00000KT 10SM CLR 06/M05 A3007 RMK AO2 T00601055
KM21 102215Z AUTO 00000KT 10SM CLR 06/M06 A3006 RMK AO2 T00641057
KM21 102155Z AUTO 22009KT 10SM CLR 07/M05 A3005 RMK AO2 T00671054
KM21 102135Z AUTO 22010G15KT 10SM CLR 07/M05 A3005 RMK AO2 T00701054
KM21 102115Z AUTO 21010KT 10SM CLR 06/M05 A3005 RMK AO2 T00631054
KM21 102055Z AUTO 21004G10KT 10SM CLR 06/M06 A3005 RMK AO2 T00611058
KM21 102035Z AUTO 21009G14KT 10SM CLR 06/M06 A3005 RMK AO2 T00631059
KM21 102015Z AUTO 21011G18KT 10SM CLR 07/M06 A3007 RMK AO2 T00661061
KM21 101955Z AUTO 20015KT 10SM CLR 08/M06 A3007 RMK AO2 T00761056
KM21 101935Z AUTO 21013G19KT 10SM CLR 07/M06 A3008 RMK AO2 T00701060
KM21 101915Z AUTO 20015KT 10SM CLR 06/M06 A3009 RMK AO2 T00641061
KM21 101855Z AUTO 21011G15KT 10SM CLR 06/M06 A3010 RMK AO2 T00611059
KM21 101835Z AUTO 22013KT 10SM CLR 06/M06 A3012 RMK AO2 T00551063
KM21 101815Z AUTO 22013KT 10SM CLR 05/M06 A3013 RMK AO2 T00491061
KM21 101755Z AUTO 21010G15KT 10SM CLR 05/M06 A3014 RMK AO2 T00471062 10047 21080
KM21 101735Z AUTO 22014G18KT 10SM CLR 04/M06 A3016 RMK AO2 T00411063
KM21 101715Z AUTO 22010G16KT 10SM CLR 04/M06 A3018 RMK AO2 T00361065
KM21 101655Z AUTO 22011G18KT 10SM CLR 03/M07 A3020 RMK AO2 T00291068
KM21 101635Z AUTO 24008G16KT 10SM CLR 03/M07 A3020 RMK AO2 T00271068
KM21 101615Z AUTO 22013G18KT 10SM CLR 02/M07 A3021 RMK AO2 T00201069
KM21 101555Z AUTO 23011G16KT 10SM CLR 02/M07 A3021 RMK AO2 T00151067
KM21 101535Z AUTO 20006KT 10SM CLR 00/M07 A3022 RMK AO2 T00021068
KM21 101515Z AUTO 22008KT 10SM CLR 00/M07 A3022 RMK AO2 T10021067
KM21 101455Z AUTO 21010KT 10SM CLR M01/M07 A3022 RMK AO2 T10111068
KM21 101435Z AUTO 20009KT 10SM CLR M02/M07 A3021 RMK AO2 T10201068
KM21 101415Z AUTO 00000KT 10SM CLR M03/M07 A3022 RMK AO2 T10291069
KM21 101355Z AUTO 00000KT 10SM CLR M04/M07 A3022 RMK AO2 T10451075
KM21 101335Z AUTO 00000KT 10SM CLR M06/M08 A3023 RMK AO2 T10611078
KM21 101315Z AUTO 00000KT 10SM CLR M07/M08 A3023 RMK AO2 T10731085
KM21 101255Z AUTO 00000KT 10SM CLR M08/M09 A3024 RMK AO2 T10801086
KM21 101235Z AUTO 00000KT 10SM CLR M08/M08 A3025 RMK AO2 T10801085
KM21 101215Z AUTO 00000KT 10SM CLR M08/M09 A3024 RMK AO2 T10781086
KM21 101155Z AUTO 00000KT 10SM CLR M07/M08 A3024 RMK AO2 T10721085 11033 21081
KM21 101135Z AUTO 00000KT 10SM CLR M07/M09 A3023 RMK AO2 T10741086
KM21 101115Z AUTO 00000KT 10SM CLR M08/M09 A3022 RMK AO2 T10801087
KM21 101055Z AUTO 00000KT 10SM CLR M08/M09 A3022 RMK AO2 T10761089
KM21 101035Z AUTO 00000KT 10SM CLR M07/M09 A3023 RMK AO2 T10731093
KM21 101015Z AUTO 00000KT 10SM CLR M07/M09 A3023 RMK AO2 T10701088
KM21 100955Z AUTO 00000KT 10SM CLR M07/M09 A3022 RMK AO2 T10731090
KM21 100935Z AUTO 00000KT 10SM CLR M07/M09 A3023 RMK AO2 T10731091
KM21 100915Z AUTO 00000KT 10SM CLR M07/M09 A3023 RMK AO2 T10671087
KM21 100855Z AUTO 00000KT 10SM CLR M07/M09 A3023 RMK AO2 T10701086
KM21 100835Z AUTO 00000KT 10SM CLR M07/M09 A3022 RMK AO2 T10721090
KM21 100815Z AUTO 00000KT 10SM CLR M06/M09 A3023 RMK AO2 T10641090
KM21 100755Z AUTO 00000KT 10SM CLR M06/M09 A3022 RMK AO2 T10571093
KM21 100735Z AUTO 00000KT 10SM CLR M06/M09 A3022 RMK AO2 T10641089
KM21 100715Z AUTO 00000KT 10SM CLR M05/M09 A3022 RMK AO2 T10511090
KM21 100655Z AUTO 00000KT 10SM CLR M05/M09 A3022 RMK AO2 T10551090
KM21 100635Z AUTO 00000KT 10SM CLR M05/M09 A3022 RMK AO2 T10531092
KM21 100615Z AUTO 00000KT 10SM CLR M04/M09 A3021 RMK AO2 T10391094
KM21 100555Z AUTO 00000KT 10SM CLR M03/M10 A3022 RMK AO2 T10321097 10011 21032 400151088
KM21 100535Z AUTO 00000KT 10SM CLR M03/M10 A3022 RMK AO2 T10281098
KM21 100515Z AUTO 29003KT 10SM CLR M02/M10 A3021 RMK AO2 T10241100
KM21 100455Z AUTO 31005KT 10SM CLR M02/M10 A3021 RMK AO2 T10211100
KM21 100435Z AUTO 31006KT 10SM CLR M02/M10 A3021 RMK AO2 T10191101
KM21 100415Z AUTO 31005KT 10SM CLR M02/M10 A3021 RMK AO2 T10171100
KM21 100355Z AUTO 30006KT 10SM CLR M01/M10 A3021 RMK AO2 T10141098
KM21 100335Z AUTO 32006G16KT 10SM SCT046 M01/M10 A3020 RMK AO2 T10101097
KM21 100315Z AUTO 32007G14KT 10SM OVC046 00/M09 A3020 RMK AO2 T10051092